createdAt,value
2022-08-05T04:01:59.045Z,19.45
2022-08-05T04:02:59.248Z,19.42
2022-08-05T04:04:09.653Z,19.43
2022-08-05T04:04:58.235Z,19.43
2022-08-05T04:05:59.256Z,19.42
2022-08-05T04:06:58.200Z,19.39
2022-08-05T04:07:59.006Z,19.31
2022-08-05T04:08:58.184Z,19.27
2022-08-05T04:09:58.178Z,19.24
2022-08-05T04:10:58.160Z,19.21
2022-08-05T04:11:58.169Z,19.21
2022-08-05T04:12:58.727Z,19.17
2022-08-05T04:13:58.135Z,19.17
2022-08-05T04:14:58.116Z,19.20
2022-08-05T04:16:04.319Z,19.21
2022-08-05T04:16:58.132Z,19.20
2022-08-05T04:18:00.116Z,19.23
2022-08-05T04:18:58.119Z,19.25
2022-08-05T04:19:58.686Z,19.28
2022-08-05T04:20:58.058Z,19.28
2022-08-05T04:22:08.063Z,19.32
2022-08-05T04:22:58.020Z,19.30
2022-08-05T04:24:05.598Z,19.28
2022-08-05T04:24:58.002Z,19.25
2022-08-05T04:26:00.957Z,19.21
2022-08-05T04:26:58.206Z,19.17
2022-08-05T04:28:00.659Z,19.20
2022-08-05T04:28:57.991Z,19.21
2022-08-05T04:29:57.969Z,19.23
2022-08-05T04:30:57.953Z,19.24
2022-08-05T04:31:57.958Z,19.27
2022-08-05T04:32:57.923Z,19.27
2022-08-05T04:34:31.783Z,19.27
2022-08-05T04:34:57.904Z,19.27
2022-08-05T04:36:15.988Z,19.30
2022-08-05T04:36:57.908Z,19.30
2022-08-05T04:38:01.312Z,19.27
2022-08-05T04:38:57.916Z,19.27
2022-08-05T04:39:57.840Z,19.28
2022-08-05T04:40:58.828Z,19.27
2022-08-05T04:41:57.803Z,19.27
2022-08-05T04:42:57.822Z,19.27
2022-08-05T04:43:57.783Z,19.27
2022-08-05T04:44:57.779Z,19.23
2022-08-05T04:45:57.784Z,19.17
2022-08-05T04:46:58.472Z,19.15
2022-08-05T04:47:57.756Z,19.13
2022-08-05T04:48:58.669Z,19.12
2022-08-05T04:50:02.959Z,19.15
2022-08-05T04:51:01.907Z,19.13
2022-08-05T04:52:00.241Z,19.13
2022-08-05T04:52:57.684Z,19.15
2022-08-05T04:53:57.680Z,19.16
2022-08-05T04:54:58.883Z,19.17
2022-08-05T04:56:32.999Z,19.21
2022-08-05T04:56:59.044Z,19.23
2022-08-05T04:57:57.639Z,19.24
2022-08-05T04:58:57.629Z,19.30
2022-08-05T04:59:58.654Z,19.32
2022-08-05T05:00:57.616Z,19.35
2022-08-05T05:02:07.817Z,19.38
2022-08-05T05:03:02.842Z,19.40
2022-08-05T05:03:57.560Z,19.40
2022-08-05T05:05:03.123Z,19.38
2022-08-05T05:06:39.351Z,19.38
2022-08-05T05:06:57.885Z,19.35
2022-08-05T05:08:01.751Z,19.35
2022-08-05T05:08:57.513Z,19.39
2022-08-05T05:09:57.519Z,19.40
2022-08-05T05:10:57.490Z,19.43
2022-08-05T05:12:01.715Z,19.45
2022-08-05T05:12:57.652Z,19.47
2022-08-05T05:13:57.442Z,19.49
2022-08-05T05:14:57.436Z,19.53
2022-08-05T05:16:02.199Z,19.57
2022-08-05T05:16:57.420Z,19.60
2022-08-05T05:17:58.091Z,19.60
2022-08-05T05:19:18.658Z,19.57
2022-08-05T05:19:57.394Z,19.55
2022-08-05T05:20:57.396Z,19.60
2022-08-05T05:21:57.372Z,19.58
2022-08-05T05:22:57.353Z,19.57
2022-08-05T05:24:03.907Z,19.57
2022-08-05T05:25:00.333Z,19.60
2022-08-05T05:25:57.316Z,19.64
2022-08-05T05:26:57.310Z,19.67
2022-08-05T05:27:57.323Z,19.64
2022-08-05T05:28:57.295Z,19.64
2022-08-05T05:30:03.868Z,19.61
2022-08-05T05:30:57.281Z,19.60
2022-08-05T05:31:57.263Z,19.60
2022-08-05T05:32:57.238Z,19.62
2022-08-05T05:34:01.753Z,19.58
2022-08-05T05:34:57.229Z,19.60
2022-08-05T05:35:57.210Z,19.62
2022-08-05T05:36:57.196Z,19.64
2022-08-05T05:37:59.700Z,19.62
2022-08-05T05:38:57.406Z,19.65
2022-08-05T05:39:57.150Z,19.67
2022-08-05T05:40:57.271Z,19.65
2022-08-05T05:41:57.145Z,19.61
2022-08-05T05:42:57.124Z,19.62
2022-08-05T05:44:00.444Z,19.64
2022-08-05T05:44:59.391Z,19.68
2022-08-05T05:45:57.093Z,19.67
2022-08-05T05:46:58.016Z,19.72
2022-08-05T05:48:08.021Z,19.76
2022-08-05T05:48:57.071Z,19.82
2022-08-05T05:50:01.413Z,19.82
2022-08-05T05:50:57.030Z,19.80
2022-08-05T05:51:57.034Z,19.76
2022-08-05T05:52:57.014Z,19.75
2022-08-05T05:53:58.898Z,19.72
2022-08-05T05:54:56.988Z,19.72
2022-08-05T05:56:00.843Z,19.78
2022-08-05T05:56:56.984Z,19.76
2022-08-05T05:57:56.981Z,19.76
2022-08-05T05:58:56.952Z,19.79
2022-08-05T05:59:56.976Z,19.76
2022-08-05T06:00:56.933Z,19.76
2022-08-05T06:01:57.492Z,19.80
2022-08-05T06:02:56.907Z,19.85
2022-08-05T06:04:01.635Z,19.82
2022-08-05T06:04:57.026Z,19.85
2022-08-05T06:05:56.869Z,19.89
2022-08-05T06:06:56.879Z,19.94
2022-08-05T06:08:01.290Z,19.98
2022-08-05T06:08:56.851Z,19.97
2022-08-05T06:10:00.389Z,19.97
2022-08-05T06:10:56.811Z,19.98
2022-08-05T06:11:59.468Z,20.00
2022-08-05T06:12:56.797Z,20.04
2022-08-05T06:13:56.772Z,20.07
2022-08-05T06:14:56.938Z,20.07
2022-08-05T06:16:29.281Z,20.07
2022-08-05T06:16:57.006Z,20.12
2022-08-05T06:17:56.733Z,20.17
2022-08-05T06:18:56.785Z,20.19
2022-08-05T06:19:59.758Z,20.22
2022-08-05T06:20:56.696Z,20.27
2022-08-05T06:21:56.728Z,20.35
2022-08-05T06:22:56.744Z,20.41
2022-08-05T06:23:56.678Z,20.54
2022-08-05T06:24:56.650Z,20.66
2022-08-05T06:26:12.507Z,20.71
2022-08-05T06:26:56.638Z,20.73
2022-08-05T06:28:10.865Z,20.82
2022-08-05T06:28:56.627Z,20.87
2022-08-05T06:30:04.469Z,20.91
2022-08-05T06:30:56.590Z,20.94
2022-08-05T06:31:56.576Z,21.01
2022-08-05T06:32:56.562Z,21.12
2022-08-05T06:34:07.385Z,21.21
2022-08-05T06:34:57.277Z,21.22
2022-08-05T06:36:07.428Z,21.24
2022-08-05T06:36:57.815Z,21.27
2022-08-05T06:37:59.010Z,21.26
2022-08-05T06:38:56.542Z,21.30
2022-08-05T06:39:56.494Z,21.37
2022-08-05T06:40:56.495Z,21.46
2022-08-05T06:41:56.455Z,21.52
2022-08-05T06:42:57.300Z,21.52
2022-08-05T06:44:00.370Z,21.56
2022-08-05T06:44:56.433Z,21.51
2022-08-05T06:46:06.802Z,21.46
2022-08-05T06:46:56.419Z,21.42
2022-08-05T06:48:36.384Z,21.40
2022-08-05T06:48:59.233Z,21.34
2022-08-05T06:50:00.375Z,21.28
2022-08-05T06:50:56.394Z,21.27
2022-08-05T06:51:56.357Z,21.16
2022-08-05T06:52:58.795Z,21.05
2022-08-05T06:53:56.350Z,21.05
2022-08-05T06:54:56.339Z,21.08
2022-08-05T06:55:56.315Z,21.08
2022-08-05T06:57:56.777Z,21.06
2022-08-05T06:58:30.217Z,21.06
2022-08-05T06:58:56.280Z,21.03
2022-08-05T06:59:58.341Z,21.05
2022-08-05T07:00:56.284Z,21.03
2022-08-05T07:01:56.232Z,20.96
2022-08-05T07:02:56.229Z,20.98
2022-08-05T07:03:56.230Z,20.96
2022-08-05T07:04:56.200Z,20.93
2022-08-05T07:05:56.209Z,20.96
2022-08-05T07:06:56.239Z,20.96
2022-08-05T07:07:56.158Z,20.98
2022-08-05T07:08:56.170Z,21.00
2022-08-05T07:09:58.259Z,20.93
2022-08-05T07:10:56.138Z,20.91
2022-08-05T07:11:56.136Z,20.88
2022-08-05T07:12:56.123Z,20.90
2022-08-05T07:13:59.730Z,20.85
2022-08-05T07:14:56.091Z,20.82
2022-08-05T07:16:01.236Z,20.79
2022-08-05T07:18:02.353Z,20.78
2022-08-05T07:18:20.410Z,20.75
2022-08-05T07:18:56.050Z,20.78
2022-08-05T07:20:32.262Z,20.75
2022-08-05T07:20:56.023Z,20.73
2022-08-05T07:22:00.114Z,20.72
2022-08-05T07:22:55.999Z,20.69
2022-08-05T07:23:55.992Z,20.66
2022-08-05T07:24:55.992Z,20.66
2022-08-05T07:25:57.008Z,20.66
2022-08-05T07:26:55.958Z,20.64
2022-08-05T07:27:57.970Z,20.68
2022-08-05T07:28:56.147Z,20.71
2022-08-05T07:30:24.083Z,20.71
2022-08-05T07:30:55.950Z,20.69
2022-08-05T07:31:55.916Z,20.68
2022-08-05T07:32:55.925Z,20.66
2022-08-05T07:33:56.839Z,20.68
2022-08-05T07:34:57.745Z,20.61
2022-08-05T07:36:19.578Z,20.61
2022-08-05T07:36:55.842Z,20.58
2022-08-05T07:37:55.890Z,20.57
2022-08-05T07:38:55.994Z,20.56
2022-08-05T07:40:04.290Z,20.56
2022-08-05T07:41:00.350Z,20.58
2022-08-05T07:42:09.177Z,20.60
2022-08-05T07:42:55.784Z,20.57
2022-08-05T07:43:56.110Z,20.56
2022-08-05T07:44:55.765Z,20.57
2022-08-05T07:45:57.767Z,20.58
2022-08-05T07:46:55.738Z,20.66
2022-08-05T07:47:55.890Z,20.71
2022-08-05T07:49:01.747Z,20.83
2022-08-05T07:49:55.726Z,20.96
2022-08-05T07:50:55.693Z,21.01
2022-08-05T07:51:55.681Z,21.09
2022-08-05T07:52:56.331Z,21.15
2022-08-05T07:53:55.659Z,21.21
2022-08-05T07:54:55.649Z,21.21
2022-08-05T07:56:06.561Z,21.26
2022-08-05T07:57:01.414Z,21.26
2022-08-05T07:58:02.862Z,21.31
2022-08-05T07:58:59.046Z,21.40
2022-08-05T07:59:55.623Z,21.43
2022-08-05T08:00:55.625Z,21.42
2022-08-05T08:01:57.592Z,21.48
2022-08-05T08:03:14.270Z,21.53
2022-08-05T08:03:55.577Z,21.58
2022-08-05T08:04:55.545Z,21.51
2022-08-05T08:05:55.528Z,21.55
2022-08-05T08:06:55.633Z,21.51
2022-08-05T08:07:59.731Z,21.48
2022-08-05T08:08:55.568Z,21.51
2022-08-05T08:09:55.492Z,21.53
2022-08-05T08:10:56.357Z,21.63
2022-08-05T08:12:00.131Z,21.66
2022-08-05T08:12:55.542Z,21.59
2022-08-05T08:14:01.140Z,21.68
2022-08-05T08:14:55.437Z,21.75
2022-08-05T08:16:35.348Z,21.75
2022-08-05T08:16:55.408Z,21.85
2022-08-05T08:17:55.390Z,21.86
2022-08-05T08:18:55.404Z,21.90
2022-08-05T08:20:22.604Z,22.05
2022-08-05T08:21:02.760Z,22.11
2022-08-05T08:21:55.372Z,22.08
2022-08-05T08:22:55.776Z,21.99
2022-08-05T08:24:02.309Z,21.93
2022-08-05T08:24:55.363Z,21.83
2022-08-05T08:25:59.747Z,21.83
2022-08-05T08:26:55.294Z,21.75
2022-08-05T08:27:55.281Z,21.74
2022-08-05T08:28:59.862Z,21.75
2022-08-05T08:30:05.222Z,21.74
2022-08-05T08:30:55.253Z,21.73
2022-08-05T08:31:55.230Z,21.75
2022-08-05T08:32:55.231Z,21.83
2022-08-05T08:33:55.200Z,21.94
2022-08-05T08:34:55.234Z,22.01
2022-08-05T08:36:18.518Z,22.04
2022-08-05T08:37:00.270Z,22.01
2022-08-05T08:37:56.428Z,22.02
2022-08-05T08:38:55.239Z,22.09
2022-08-05T08:39:55.272Z,22.15
2022-08-05T08:40:55.128Z,22.19
2022-08-05T08:41:59.691Z,22.19
2022-08-05T08:42:56.515Z,22.15
2022-08-05T08:45:20.785Z,22.14
2022-08-05T08:45:30.815Z,22.12
2022-08-05T08:45:55.078Z,22.08
2022-08-05T08:46:55.070Z,22.12
2022-08-05T08:48:07.339Z,22.20
2022-08-05T08:49:06.238Z,22.23
2022-08-05T08:50:31.981Z,22.26
2022-08-05T08:51:54.492Z,22.39
2022-08-05T08:52:13.236Z,22.69
2022-08-05T08:52:55.872Z,22.97
2022-08-05T08:53:55.006Z,23.11
2022-08-05T08:54:54.984Z,23.22
2022-08-05T08:56:02.849Z,23.25
2022-08-05T08:56:56.618Z,23.25
2022-08-05T08:57:58.405Z,23.18
2022-08-05T08:58:54.947Z,23.12
2022-08-05T08:59:56.107Z,23.00
2022-08-05T09:00:54.960Z,22.81
2022-08-05T09:01:57.314Z,22.70
2022-08-05T09:02:54.918Z,22.66
2022-08-05T09:03:57.366Z,22.66
2022-08-05T09:05:16.161Z,22.63
2022-08-05T09:06:08.663Z,22.63
2022-08-05T09:06:55.059Z,22.69
2022-08-05T09:07:57.717Z,22.75
2022-08-05T09:08:54.853Z,22.79
2022-08-05T09:09:54.844Z,22.84
2022-08-05T09:10:55.421Z,22.86
2022-08-05T09:11:59.319Z,22.84
2022-08-05T09:12:54.783Z,22.88
2022-08-05T09:14:09.555Z,22.93
2022-08-05T09:15:05.972Z,22.89
2022-08-05T09:15:54.761Z,22.89
2022-08-05T09:16:54.735Z,22.88
2022-08-05T09:17:54.768Z,22.91
2022-08-05T09:18:55.406Z,22.97
2022-08-05T09:19:55.109Z,22.99
2022-08-05T09:20:54.747Z,23.03
2022-08-05T09:22:22.941Z,23.06
2022-08-05T09:22:54.693Z,23.06
2022-08-05T09:23:58.175Z,23.14
2022-08-05T09:24:54.651Z,23.32
2022-08-05T09:26:01.098Z,23.54
2022-08-05T09:26:54.631Z,23.87
2022-08-05T09:28:03.915Z,24.02
2022-08-05T09:28:54.634Z,24.09
2022-08-05T09:29:54.592Z,24.12
2022-08-05T09:30:54.613Z,24.05
2022-08-05T09:32:41.921Z,23.96
2022-08-05T09:32:54.800Z,23.96
2022-08-05T09:33:54.576Z,23.90
2022-08-05T09:34:54.523Z,23.84
2022-08-05T09:35:54.558Z,23.72
2022-08-05T09:36:59.384Z,23.45
2022-08-05T09:38:17.953Z,23.29
2022-08-05T09:38:54.551Z,23.19
2022-08-05T09:39:55.998Z,23.18
2022-08-05T09:40:54.470Z,23.21
2022-08-05T09:41:56.405Z,23.37
2022-08-05T09:42:54.488Z,23.44
2022-08-05T09:43:54.462Z,23.59
2022-08-05T09:44:56.701Z,24.18
2022-08-05T09:46:06.791Z,24.71
2022-08-05T09:46:58.159Z,24.56
2022-08-05T09:47:55.827Z,24.52
2022-08-05T09:48:55.491Z,24.60
2022-08-05T09:50:00.500Z,24.48
2022-08-05T09:50:54.385Z,24.44
2022-08-05T09:51:54.366Z,24.48
2022-08-05T09:52:54.379Z,24.48
2022-08-05T09:53:59.327Z,24.45
2022-08-05T09:54:54.404Z,24.36
2022-08-05T09:55:56.506Z,24.14
2022-08-05T09:56:54.310Z,24.05
2022-08-05T09:57:54.831Z,23.87
2022-08-05T09:58:54.289Z,23.69
2022-08-05T09:59:54.290Z,23.60
2022-08-05T10:00:54.245Z,23.54
2022-08-05T10:01:58.194Z,23.49
2022-08-05T10:02:54.285Z,23.49
2022-08-05T10:03:59.215Z,23.45
2022-08-05T10:04:54.225Z,23.42
2022-08-05T10:05:54.220Z,23.39
2022-08-05T10:06:59.117Z,23.38
2022-08-05T10:08:35.113Z,23.38
2022-08-05T10:08:55.393Z,23.37
2022-08-05T10:10:15.177Z,23.29
2022-08-05T10:10:54.893Z,23.29
2022-08-05T10:11:54.120Z,23.25
2022-08-05T10:12:54.169Z,23.22
2022-08-05T10:14:00.658Z,23.18
2022-08-05T10:14:54.389Z,23.07
2022-08-05T10:15:54.099Z,22.93
2022-08-05T10:16:54.054Z,22.79
2022-08-05T10:17:56.551Z,22.69
2022-08-05T10:18:54.056Z,22.64
2022-08-05T10:20:04.224Z,22.54
2022-08-05T10:20:54.026Z,22.46
2022-08-05T10:21:54.002Z,22.48
2022-08-05T10:22:54.019Z,22.52
2022-08-05T10:23:58.866Z,22.54
2022-08-05T10:24:54.007Z,22.52
2022-08-05T10:25:53.977Z,22.52
2022-08-05T10:26:53.979Z,22.51
2022-08-05T10:28:12.823Z,22.49
2022-08-05T10:28:54.021Z,22.39
2022-08-05T10:30:06.404Z,22.31
2022-08-05T10:32:53.222Z,22.23
2022-08-05T10:33:05.521Z,22.24
2022-08-05T10:33:17.167Z,22.27
2022-08-05T10:34:14.311Z,22.27
2022-08-05T10:35:14.211Z,22.29
2022-08-05T10:36:14.218Z,22.20
2022-08-05T10:37:14.245Z,22.11
2022-08-05T10:38:14.205Z,21.96
2022-08-05T10:39:24.309Z,21.89
2022-08-05T10:41:24.866Z,21.79
2022-08-05T10:42:34.192Z,21.77
2022-08-05T10:43:31.062Z,21.79
2022-08-05T10:44:25.800Z,21.74
2022-08-05T10:45:30.687Z,21.67
2022-08-05T10:46:25.800Z,21.59
2022-08-05T10:47:26.497Z,21.58
2022-08-05T10:48:31.375Z,21.58
2022-08-05T10:49:27.567Z,21.53
2022-08-05T10:50:36.334Z,21.48
2022-08-05T10:51:28.799Z,21.45
2022-08-05T10:52:25.869Z,21.38
2022-08-05T10:53:25.678Z,21.38
2022-08-05T10:54:29.983Z,21.31
2022-08-05T10:55:25.675Z,21.24
2022-08-05T10:56:26.178Z,21.21
2022-08-05T10:57:25.644Z,21.15
2022-08-05T10:58:36.169Z,21.08
2022-08-05T11:00:02.220Z,21.09
2022-08-05T11:00:25.641Z,21.12
2022-08-05T11:01:28.506Z,21.19
2022-08-05T11:02:38.069Z,21.27
2022-08-05T11:03:27.070Z,21.28
2022-08-05T11:04:26.171Z,21.33
2022-08-05T11:05:29.128Z,21.34
2022-08-05T11:06:30.947Z,21.34
2022-08-05T11:07:33.157Z,21.36
2022-08-05T11:08:37.079Z,21.34
2022-08-05T11:09:39.109Z,21.31
2022-08-05T11:10:32.029Z,21.27
2022-08-05T11:11:25.484Z,21.18
2022-08-05T11:12:25.705Z,21.05
2022-08-05T11:13:25.480Z,20.94
2022-08-05T11:14:37.283Z,20.88
2022-08-05T11:16:01.008Z,20.82
2022-08-05T11:16:47.757Z,20.79
2022-08-05T11:17:59.134Z,20.72
2022-08-05T11:18:25.420Z,20.63
2022-08-05T11:20:17.063Z,20.60
2022-08-05T11:20:25.380Z,20.63
2022-08-05T11:21:25.363Z,20.71
2022-08-05T11:22:25.359Z,20.73
2022-08-05T11:23:25.395Z,20.76
2022-08-05T11:24:30.230Z,20.79
2022-08-05T11:26:05.453Z,20.83
2022-08-05T11:26:28.075Z,20.96
2022-08-05T11:27:25.595Z,21.01
2022-08-05T11:28:25.314Z,21.06
2022-08-05T11:29:25.313Z,21.09
2022-08-05T11:30:25.898Z,21.06
2022-08-05T11:31:57.235Z,21.03
2022-08-05T11:32:25.291Z,21.05
2022-08-05T11:33:25.257Z,21.08
2022-08-05T11:34:26.263Z,21.06
2022-08-05T11:35:25.266Z,21.05
2022-08-05T11:36:34.568Z,21.12
2022-08-05T11:38:28.001Z,21.11
2022-08-05T11:38:45.493Z,21.15
2022-08-05T11:39:25.249Z,21.18
2022-08-05T11:40:25.163Z,21.21
2022-08-05T11:41:58.091Z,21.34
2022-08-05T11:42:27.921Z,21.51
2022-08-05T11:44:00.947Z,21.67
2022-08-05T11:44:40.906Z,21.73
2022-08-05T11:46:27.533Z,21.81
2022-08-05T11:46:37.531Z,21.89
2022-08-05T11:47:48.503Z,21.99
2022-08-05T11:48:25.060Z,22.02
2022-08-05T11:49:25.091Z,22.06
2022-08-05T11:50:25.101Z,22.17
2022-08-05T11:51:44.705Z,22.19
2022-08-05T11:52:29.351Z,22.20
2022-08-05T11:53:25.019Z,22.21
2022-08-05T11:54:33.779Z,22.17
2022-08-05T11:55:32.307Z,22.14
2022-08-05T11:56:25.385Z,22.08
2022-08-05T11:57:27.173Z,22.02
2022-08-05T11:58:24.965Z,21.98
2022-08-05T11:59:24.953Z,22.02
2022-08-05T12:00:24.935Z,22.15
2022-08-05T12:01:24.929Z,22.36
2022-08-05T12:02:31.805Z,22.54
2022-08-05T12:03:31.476Z,22.79
2022-08-05T12:04:24.913Z,23.12
2022-08-05T12:05:28.835Z,23.57
2022-08-05T12:06:24.904Z,23.97
2022-08-05T12:08:08.341Z,24.44
2022-08-05T12:08:24.853Z,24.89
2022-08-05T12:09:24.834Z,25.26
2022-08-05T12:10:24.983Z,25.60
2022-08-05T12:11:24.817Z,25.76
2022-08-05T12:12:25.810Z,26.19
2022-08-05T12:13:48.096Z,26.44
2022-08-05T12:14:24.811Z,26.79
2022-08-05T12:15:38.431Z,27.08
2022-08-05T12:16:26.961Z,27.28
2022-08-05T12:17:24.780Z,27.66
2022-08-05T12:18:27.427Z,27.83
2022-08-05T12:20:26.796Z,27.76
2022-08-05T12:20:37.628Z,27.62
2022-08-05T12:21:24.733Z,27.58
2022-08-05T12:22:24.711Z,27.52
2022-08-05T12:23:24.720Z,27.59
2022-08-05T12:24:24.741Z,27.90
2022-08-05T12:25:28.221Z,28.21
2022-08-05T12:26:24.646Z,28.65
2022-08-05T12:27:25.445Z,29.36
2022-08-05T12:28:24.698Z,29.70
2022-08-05T12:29:24.639Z,30.44
2022-08-05T12:30:32.104Z,31.04
2022-08-05T12:31:42.393Z,30.79
2022-08-05T12:32:24.627Z,30.98
2022-08-05T12:33:27.950Z,31.31
2022-08-05T12:34:25.935Z,31.85
2022-08-05T12:35:24.572Z,32.05
2022-08-05T12:36:24.672Z,32.44
2022-08-05T12:37:24.645Z,33.05
2022-08-05T12:38:30.261Z,33.20
2022-08-05T12:39:27.822Z,33.28
2022-08-05T12:40:26.923Z,33.56
2022-08-05T12:41:24.530Z,33.06
2022-08-05T12:42:25.393Z,32.19
2022-08-05T12:43:24.487Z,31.67
2022-08-05T12:44:33.365Z,31.05
2022-08-05T12:45:42.756Z,31.46
2022-08-05T12:46:28.822Z,31.20
2022-08-05T12:47:24.663Z,30.72
2022-08-05T12:48:32.070Z,31.23
2022-08-05T12:49:25.636Z,31.88
2022-08-05T12:50:31.067Z,32.34
2022-08-05T12:52:13.513Z,32.62
2022-08-05T12:52:35.431Z,32.09
2022-08-05T12:53:24.393Z,32.72
2022-08-05T12:54:26.515Z,32.63
2022-08-05T12:55:25.380Z,32.58
2022-08-05T12:56:35.364Z,32.85
2022-08-05T12:57:24.624Z,33.17
2022-08-05T12:58:49.052Z,33.62
2022-08-05T12:59:46.887Z,33.92
2022-08-05T13:02:07.684Z,34.01
2022-08-05T13:02:13.044Z,33.90
2022-08-05T13:03:14.870Z,34.27
2022-08-05T13:04:14.146Z,33.90
2022-08-05T13:05:14.549Z,34.45
2022-08-05T13:06:12.925Z,35.39
2022-08-05T13:07:15.938Z,36.05
2022-08-05T13:08:12.886Z,36.43
2022-08-05T13:09:12.871Z,36.55
2022-08-05T13:10:12.932Z,36.48
2022-08-05T13:11:12.882Z,35.93
2022-08-05T13:12:13.235Z,35.99
2022-08-05T13:13:12.838Z,36.08
2022-08-05T13:14:14.716Z,35.99
2022-08-05T13:15:16.440Z,36.33
2022-08-05T13:16:12.848Z,36.19
2022-08-05T13:17:12.808Z,36.53
2022-08-05T13:18:12.843Z,36.64
2022-08-05T13:19:12.789Z,36.33
2022-08-05T13:20:12.789Z,35.47
2022-08-05T13:21:12.761Z,34.64
2022-08-05T13:22:12.774Z,34.09
2022-08-05T13:23:12.746Z,33.62
2022-08-05T13:24:12.737Z,33.15
2022-08-05T13:25:19.231Z,33.37
2022-08-05T13:26:12.734Z,33.92
2022-08-05T13:27:17.093Z,34.30
2022-08-05T13:28:12.722Z,34.63
2022-08-05T13:29:12.698Z,35.32
2022-08-05T13:30:35.365Z,35.10
2022-08-05T13:31:14.317Z,34.93
2022-08-05T13:32:12.663Z,35.39
2022-08-05T13:33:14.343Z,35.25
2022-08-05T13:34:29.877Z,35.44
2022-08-05T13:35:12.626Z,35.31
2022-08-05T13:36:12.621Z,35.55
2022-08-05T13:37:12.670Z,35.59
2022-08-05T13:38:28.431Z,35.68
2022-08-05T13:40:13.126Z,35.74
2022-08-05T13:40:27.586Z,35.69
2022-08-05T13:41:12.653Z,35.42
2022-08-05T13:42:14.560Z,35.21
2022-08-05T13:43:12.562Z,35.55
2022-08-05T13:44:12.550Z,35.99
2022-08-05T13:45:12.532Z,36.43
2022-08-05T13:46:12.516Z,36.64
2022-08-05T13:47:35.074Z,36.90
2022-08-05T13:49:00.277Z,37.05
2022-08-05T13:49:12.490Z,37.35
2022-08-05T13:50:16.637Z,36.72
2022-08-05T13:51:12.472Z,36.13
2022-08-05T13:52:12.481Z,35.92
2022-08-05T13:53:15.727Z,36.12
2022-08-05T13:54:13.723Z,36.00
2022-08-05T13:55:12.440Z,35.54
2022-08-05T13:56:19.274Z,35.17
2022-08-05T13:57:12.426Z,34.71
2022-08-05T13:58:12.409Z,34.12
2022-08-05T13:59:20.071Z,33.79
2022-08-05T14:00:12.393Z,33.49
2022-08-05T14:01:12.389Z,33.07
2022-08-05T14:02:19.965Z,32.85
2022-08-05T14:03:12.441Z,32.58
2022-08-05T14:04:12.341Z,32.80
2022-08-05T14:05:15.330Z,33.75
2022-08-05T14:06:26.918Z,34.58
2022-08-05T14:07:55.410Z,35.18
2022-08-05T14:08:20.968Z,35.52
2022-08-05T14:09:12.311Z,36.15
2022-08-05T14:10:12.352Z,36.44
2022-08-05T14:11:20.609Z,36.67
2022-08-05T14:12:17.847Z,36.64
2022-08-05T14:13:12.296Z,36.69
2022-08-05T14:14:12.300Z,36.27
2022-08-05T14:16:05.084Z,35.52
2022-08-05T14:16:17.013Z,34.91
2022-08-05T14:17:17.719Z,34.78
2022-08-05T14:18:17.491Z,35.27
2022-08-05T14:19:12.259Z,35.84
2022-08-05T14:20:12.206Z,36.33
2022-08-05T14:21:23.894Z,36.33
2022-08-05T14:22:14.363Z,36.65
2022-08-05T14:23:12.175Z,36.93
2022-08-05T14:24:12.201Z,37.27
2022-08-05T14:25:21.568Z,37.50
2022-08-05T14:26:35.544Z,37.68
2022-08-05T14:27:18.836Z,37.77
2022-08-05T14:28:16.075Z,37.04
2022-08-05T14:29:16.727Z,36.02
2022-08-05T14:30:20.371Z,36.21
2022-08-05T14:31:17.583Z,35.61
2022-08-05T14:32:27.196Z,35.89
2022-08-05T14:33:12.098Z,36.60
2022-08-05T14:34:12.146Z,37.24
2022-08-05T14:35:12.102Z,37.84
2022-08-05T14:36:12.080Z,38.30
2022-08-05T14:37:13.355Z,37.91
2022-08-05T14:38:32.093Z,37.12
2022-08-05T14:39:12.120Z,36.22
2022-08-05T14:40:14.075Z,35.73
2022-08-05T14:41:12.016Z,35.13
2022-08-05T14:42:21.330Z,35.40
2022-08-05T14:43:12.050Z,35.73
2022-08-05T14:44:20.232Z,35.78
2022-08-05T14:45:11.999Z,35.43
2022-08-05T14:46:11.958Z,34.55
2022-08-05T14:47:11.948Z,34.67
2022-08-05T14:48:11.962Z,34.30
2022-08-05T14:49:11.956Z,34.14
2022-08-05T14:50:18.133Z,33.66
2022-08-05T14:51:15.440Z,33.28
2022-08-05T14:52:12.290Z,32.87
2022-08-05T14:53:11.901Z,32.68
2022-08-05T14:54:29.938Z,32.63
2022-08-05T14:55:15.385Z,32.66
2022-08-05T14:56:11.875Z,33.24
2022-08-05T14:57:13.517Z,33.21
2022-08-05T14:58:13.774Z,33.11
2022-08-05T14:59:11.859Z,32.77
2022-08-05T15:00:19.902Z,32.49
2022-08-05T15:01:15.987Z,32.81
2022-08-05T15:02:15.854Z,32.71
2022-08-05T15:03:11.797Z,32.34
2022-08-05T15:04:11.780Z,31.88
2022-08-05T15:05:13.512Z,31.46
2022-08-05T15:06:15.072Z,31.16
2022-08-05T15:07:11.749Z,30.97
2022-08-05T15:08:17.909Z,30.76
2022-08-05T15:09:11.755Z,30.54
2022-08-05T15:10:11.746Z,30.40
2022-08-05T15:11:11.770Z,30.25
2022-08-05T15:12:16.794Z,30.00
2022-08-05T15:13:11.742Z,29.81
2022-08-05T15:14:11.688Z,29.66
2022-08-05T15:15:15.508Z,29.48
2022-08-05T15:16:13.152Z,29.23
2022-08-05T15:17:44.959Z,29.00
2022-08-05T15:18:11.655Z,28.76
2022-08-05T15:19:14.581Z,28.46
2022-08-05T15:21:22.363Z,28.28
2022-08-05T15:22:27.212Z,28.25
2022-08-05T15:23:23.302Z,28.09
2022-08-05T15:24:23.300Z,27.95
2022-08-05T15:25:41.137Z,27.96
2022-08-05T15:26:31.933Z,28.08
2022-08-05T15:27:25.740Z,28.21
2022-08-05T15:28:27.417Z,28.17
2022-08-05T15:29:23.249Z,28.11
2022-08-05T15:30:23.219Z,28.01
2022-08-05T15:31:23.238Z,27.88
2022-08-05T15:32:27.146Z,27.80
2022-08-05T15:34:04.881Z,27.71
2022-08-05T15:34:32.234Z,27.59
2022-08-05T15:35:23.174Z,27.52
2022-08-05T15:36:25.642Z,27.39
2022-08-05T15:38:32.448Z,27.25
2022-08-05T15:38:41.811Z,27.15
2022-08-05T15:40:59.222Z,27.08
2022-08-05T15:41:01.805Z,27.01
2022-08-05T15:41:24.379Z,27.01
2022-08-05T15:42:54.208Z,27.05
2022-08-05T15:43:23.242Z,26.93
2022-08-05T15:44:23.165Z,26.75
2022-08-05T15:45:38.587Z,26.61
2022-08-05T15:46:24.397Z,26.57
2022-08-05T15:47:23.625Z,26.57
2022-08-05T15:48:23.030Z,26.64
2022-08-05T15:49:41.932Z,26.71
2022-08-05T15:50:25.240Z,26.79
2022-08-05T15:52:03.335Z,26.79
2022-08-05T15:52:29.296Z,26.87
2022-08-05T15:53:22.982Z,26.84
2022-08-05T15:54:35.043Z,26.94
2022-08-05T15:55:24.536Z,27.11
2022-08-05T15:56:22.993Z,27.03
2022-08-05T15:57:23.221Z,26.98
2022-08-05T15:58:23.182Z,26.97
2022-08-05T15:59:22.948Z,26.90
2022-08-05T16:00:26.259Z,26.86
2022-08-05T16:01:22.987Z,26.86
2022-08-05T16:02:25.566Z,26.84
2022-08-05T16:03:22.877Z,26.83
2022-08-05T16:04:25.621Z,26.86
2022-08-05T16:05:22.859Z,26.75
2022-08-05T16:06:23.021Z,26.71
2022-08-05T16:07:23.055Z,26.71
2022-08-05T16:08:22.821Z,26.61
2022-08-05T16:09:22.844Z,26.57
2022-08-05T16:10:23.133Z,26.57
2022-08-05T16:11:40.109Z,26.61
2022-08-05T16:12:22.972Z,26.68
2022-08-05T16:13:23.458Z,26.73
2022-08-05T16:14:22.769Z,26.83
2022-08-05T16:15:22.746Z,26.87
2022-08-05T16:16:25.488Z,26.79
2022-08-05T16:17:22.752Z,26.75
2022-08-05T16:18:28.083Z,26.76
2022-08-05T16:20:02.398Z,26.73
2022-08-05T16:20:29.212Z,26.75
2022-08-05T16:21:59.236Z,26.78
2022-08-05T16:22:27.465Z,26.81
2022-08-05T16:23:22.707Z,26.71
2022-08-05T16:24:36.079Z,26.64
2022-08-05T16:25:22.656Z,26.64
2022-08-05T16:26:26.388Z,26.59
2022-08-05T16:27:46.905Z,26.53
2022-08-05T16:28:24.293Z,26.42
2022-08-05T16:29:22.588Z,26.24
2022-08-05T16:30:25.947Z,26.09
2022-08-05T16:31:22.800Z,26.00
2022-08-05T16:32:23.312Z,25.94
2022-08-05T16:33:22.588Z,25.93
2022-08-05T16:34:22.541Z,25.90
2022-08-05T16:35:28.083Z,25.91
2022-08-05T16:36:23.843Z,25.93
2022-08-05T16:38:16.394Z,25.94
2022-08-05T16:38:29.392Z,25.96
2022-08-05T16:39:22.564Z,26.04
2022-08-05T16:40:26.551Z,26.09
2022-08-05T16:42:15.302Z,26.13
2022-08-05T16:42:28.305Z,26.23
2022-08-05T16:43:22.477Z,26.34
2022-08-05T16:44:22.446Z,26.38
2022-08-05T16:46:04.887Z,26.39
2022-08-05T16:46:24.481Z,26.34
2022-08-05T16:47:28.947Z,26.24
2022-08-05T16:48:25.492Z,26.21
2022-08-05T16:49:22.381Z,26.20
2022-08-05T16:50:22.379Z,26.08
2022-08-05T16:51:22.391Z,25.97
2022-08-05T16:52:22.590Z,25.85
2022-08-05T16:53:31.904Z,25.83
2022-08-05T16:54:27.554Z,25.82
2022-08-05T16:55:22.348Z,25.78
2022-08-05T16:56:22.318Z,25.74
2022-08-05T16:57:22.591Z,25.59